createdAt,value
2022-07-29T00:02:14.493Z,19.59
2022-07-29T00:04:41.200Z,19.59
2022-07-29T00:07:07.832Z,19.54
2022-07-29T00:09:42.965Z,19.53
2022-07-29T00:12:21.429Z,19.42
2022-07-29T00:14:55.215Z,19.35
2022-07-29T00:17:21.836Z,19.36
2022-07-29T00:19:48.335Z,19.37
2022-07-29T00:22:15.047Z,19.33
2022-07-29T00:24:41.782Z,19.28
2022-07-29T00:27:08.330Z,19.29
2022-07-29T00:29:35.326Z,19.31
2022-07-29T00:32:03.162Z,19.37
2022-07-29T00:34:48.709Z,19.42
2022-07-29T00:37:15.242Z,19.35
2022-07-29T00:39:41.922Z,19.36
2022-07-29T00:42:08.973Z,19.37
2022-07-29T00:44:39.852Z,19.37
2022-07-29T00:47:07.296Z,19.36
2022-07-29T00:49:35.115Z,19.37
2022-07-29T00:52:03.763Z,19.35
2022-07-29T00:54:31.176Z,19.25
2022-07-29T00:56:59.976Z,19.20
2022-07-29T00:59:34.627Z,19.19
2022-07-29T01:02:03.661Z,19.18
2022-07-29T01:04:31.790Z,19.21
2022-07-29T01:06:58.540Z,19.20
2022-07-29T01:09:35.029Z,19.22
2022-07-29T01:12:19.359Z,19.20
2022-07-29T01:14:47.706Z,19.12
2022-07-29T01:17:39.075Z,19.14
2022-07-29T01:20:44.723Z,19.17
2022-07-29T01:23:26.133Z,19.16
2022-07-29T01:26:09.331Z,19.15
2022-07-29T01:28:41.133Z,19.12
2022-07-29T01:31:11.456Z,19.14
2022-07-29T01:33:49.689Z,19.15
2022-07-29T01:36:32.033Z,19.10
2022-07-29T01:39:07.223Z,19.06
2022-07-29T01:41:37.175Z,19.03
2022-07-29T01:44:16.042Z,19.00
2022-07-29T01:46:57.120Z,18.94
2022-07-29T01:49:37.626Z,18.92
2022-07-29T01:52:14.139Z,18.95
2022-07-29T01:54:58.315Z,18.96
2022-07-29T01:57:30.224Z,18.89
2022-07-29T01:59:59.492Z,18.73
2022-07-29T02:02:28.996Z,18.74
2022-07-29T02:04:57.286Z,18.76
2022-07-29T02:07:27.717Z,18.71
2022-07-29T02:09:55.787Z,18.65
2022-07-29T02:12:25.098Z,18.64
2022-07-29T02:14:53.983Z,18.50
2022-07-29T02:17:27.410Z,18.51
2022-07-29T02:19:59.112Z,18.49
2022-07-29T02:22:27.851Z,18.40
2022-07-29T02:24:54.712Z,18.35
2022-07-29T02:27:21.910Z,18.26
2022-07-29T02:29:50.055Z,18.21
2022-07-29T02:32:18.199Z,18.15
2022-07-29T02:34:45.753Z,18.13
2022-07-29T02:37:13.578Z,18.00
2022-07-29T02:39:43.139Z,18.00
2022-07-29T02:42:13.672Z,17.97
2022-07-29T02:44:40.295Z,17.85
2022-07-29T02:47:27.751Z,17.55
2022-07-29T02:50:22.265Z,17.55
2022-07-29T02:52:58.671Z,17.51
2022-07-29T02:55:43.688Z,17.59
2022-07-29T02:58:29.478Z,17.74
2022-07-29T03:01:05.113Z,17.81
2022-07-29T03:03:38.266Z,17.52
2022-07-29T03:06:07.360Z,17.39
2022-07-29T03:08:35.782Z,17.60
2022-07-29T03:11:03.090Z,17.49
2022-07-29T03:13:31.057Z,17.57
2022-07-29T03:15:59.136Z,17.62
2022-07-29T03:18:26.864Z,17.54
2022-07-29T03:20:53.915Z,17.64
2022-07-29T03:23:23.619Z,17.65
2022-07-29T03:25:53.921Z,17.61
2022-07-29T03:28:22.143Z,17.57
2022-07-29T03:30:49.165Z,17.66
2022-07-29T03:33:16.389Z,17.65
2022-07-29T03:35:43.309Z,17.64
2022-07-29T03:38:09.860Z,17.63
2022-07-29T03:40:45.906Z,17.69
2022-07-29T03:43:14.274Z,17.66
2022-07-29T03:45:45.212Z,17.66
2022-07-29T03:48:14.969Z,17.72
2022-07-29T03:50:41.606Z,17.80
2022-07-29T03:53:08.947Z,17.86
2022-07-29T03:55:42.910Z,17.81
2022-07-29T03:58:10.685Z,17.79
2022-07-29T04:00:38.590Z,17.84
2022-07-29T04:03:06.144Z,17.79
2022-07-29T04:05:38.269Z,17.74
2022-07-29T04:08:05.183Z,17.88
2022-07-29T04:10:33.982Z,17.84
2022-07-29T04:13:01.091Z,17.82
2022-07-29T04:15:30.898Z,17.81
2022-07-29T04:17:58.727Z,17.88
2022-07-29T04:20:25.263Z,17.87
2022-07-29T04:22:51.748Z,17.90
2022-07-29T04:25:18.367Z,17.94
2022-07-29T04:28:01.173Z,17.98
2022-07-29T04:30:28.072Z,17.96
2022-07-29T04:32:54.726Z,17.95
2022-07-29T04:35:21.400Z,18.00
2022-07-29T04:37:47.957Z,17.97
2022-07-29T04:40:14.911Z,17.96
2022-07-29T04:42:46.406Z,17.91
2022-07-29T04:45:14.838Z,17.99
2022-07-29T04:47:42.666Z,18.09
2022-07-29T04:50:10.054Z,18.09
2022-07-29T04:52:36.856Z,18.04
2022-07-29T04:55:04.779Z,18.07
2022-07-29T04:57:31.512Z,18.13
2022-07-29T04:59:58.124Z,18.15
2022-07-29T05:02:24.873Z,18.18
2022-07-29T05:04:51.453Z,18.19
2022-07-29T05:07:17.964Z,18.22
2022-07-29T05:09:44.579Z,18.28
2022-07-29T05:12:11.822Z,18.14
2022-07-29T05:14:38.500Z,18.21
2022-07-29T05:17:05.116Z,18.30
2022-07-29T05:19:31.732Z,18.31
2022-07-29T05:21:58.322Z,18.27
2022-07-29T05:24:24.885Z,18.34
2022-07-29T05:26:51.448Z,18.41
2022-07-29T05:29:43.889Z,18.50
2022-07-29T05:32:05.643Z,18.42
2022-07-29T05:34:32.593Z,18.56
2022-07-29T05:36:59.564Z,18.64
2022-07-29T05:39:47.072Z,18.68
2022-07-29T05:42:12.700Z,18.65
2022-07-29T05:44:41.096Z,18.72
2022-07-29T05:47:07.616Z,18.83
2022-07-29T05:49:34.245Z,19.00
2022-07-29T05:52:00.923Z,18.83
2022-07-29T05:54:27.533Z,18.65
2022-07-29T05:56:54.224Z,18.53
2022-07-29T05:59:20.790Z,18.60
2022-07-29T06:01:47.414Z,18.66
2022-07-29T06:04:14.401Z,18.59
2022-07-29T06:06:41.130Z,18.50
2022-07-29T06:09:12.296Z,18.50
2022-07-29T06:11:39.529Z,18.41
2022-07-29T06:14:06.160Z,18.44
2022-07-29T06:16:32.839Z,18.47
2022-07-29T06:18:59.613Z,18.37
2022-07-29T06:21:26.450Z,18.30
2022-07-29T06:23:53.020Z,18.28
2022-07-29T06:26:19.580Z,18.14
2022-07-29T06:28:57.438Z,18.16
2022-07-29T06:31:24.077Z,18.14
2022-07-29T06:33:50.692Z,18.14
2022-07-29T06:36:17.348Z,18.25
2022-07-29T06:38:49.209Z,18.40
2022-07-29T06:41:18.309Z,18.37
2022-07-29T06:43:52.153Z,18.21
2022-07-29T06:46:22.339Z,18.23
2022-07-29T06:48:49.866Z,18.10
2022-07-29T06:51:22.238Z,18.15
2022-07-29T06:53:59.500Z,18.21
2022-07-29T06:56:42.099Z,18.53
2022-07-29T06:59:10.866Z,18.74
2022-07-29T07:01:39.413Z,18.69
2022-07-29T07:04:06.728Z,18.53
2022-07-29T07:06:33.574Z,18.56
2022-07-29T07:09:00.103Z,19.00
2022-07-29T07:11:26.639Z,19.35
2022-07-29T07:13:53.166Z,19.22
2022-07-29T07:16:19.879Z,19.15
2022-07-29T07:18:46.491Z,19.25
2022-07-29T07:21:13.303Z,19.02
2022-07-29T07:23:46.346Z,18.81
2022-07-29T07:26:12.979Z,18.76
2022-07-29T07:28:39.522Z,18.49
2022-07-29T07:31:06.273Z,18.11
2022-07-29T07:33:32.827Z,17.99
2022-07-29T07:35:59.491Z,17.94
2022-07-29T07:38:26.016Z,17.77
2022-07-29T07:40:52.735Z,17.73
2022-07-29T07:43:19.305Z,18.03
2022-07-29T07:45:45.901Z,18.08
2022-07-29T07:48:12.496Z,18.25
2022-07-29T07:50:39.081Z,18.08
2022-07-29T07:53:05.928Z,18.22
2022-07-29T07:55:53.578Z,18.37
2022-07-29T07:58:19.001Z,18.52
2022-07-29T08:00:45.635Z,18.59
2022-07-29T08:03:17.002Z,18.63
2022-07-29T08:05:44.043Z,18.52
2022-07-29T08:08:10.701Z,18.38
2022-07-29T08:10:56.101Z,18.33
2022-07-29T08:13:26.551Z,18.53
2022-07-29T08:15:58.711Z,18.67
2022-07-29T08:18:32.164Z,18.78
2022-07-29T08:20:59.500Z,18.79
2022-07-29T08:23:32.904Z,18.65
2022-07-29T08:26:14.480Z,18.52
2022-07-29T08:28:45.725Z,18.70
2022-07-29T08:31:13.741Z,18.85
2022-07-29T08:33:40.394Z,18.83
2022-07-29T08:36:07.449Z,18.92
2022-07-29T08:38:34.242Z,18.67
2022-07-29T08:41:04.195Z,18.82
2022-07-29T08:43:30.760Z,19.15
2022-07-29T08:45:57.298Z,19.42
2022-07-29T08:48:24.921Z,19.64
2022-07-29T08:50:56.766Z,19.61
2022-07-29T08:53:27.434Z,19.68
2022-07-29T08:55:54.247Z,19.75
2022-07-29T08:58:24.654Z,21.72
2022-07-29T09:00:55.460Z,23.02
2022-07-29T09:03:30.600Z,25.05
2022-07-29T09:05:57.617Z,24.09
2022-07-29T09:08:24.766Z,26.23
2022-07-29T09:10:52.246Z,26.55
2022-07-29T09:13:19.110Z,25.91
2022-07-29T09:15:46.303Z,24.15
2022-07-29T09:18:20.341Z,24.15
2022-07-29T09:21:15.835Z,22.40
2022-07-29T09:23:43.853Z,22.18
2022-07-29T09:26:10.411Z,23.01
2022-07-29T09:28:43.439Z,22.95
2022-07-29T09:31:10.142Z,23.32
2022-07-29T09:33:40.047Z,25.05
2022-07-29T09:36:08.859Z,26.66
2022-07-29T09:38:37.632Z,25.48
2022-07-29T09:41:07.029Z,26.41
2022-07-29T09:43:34.716Z,27.70
2022-07-29T09:46:12.725Z,25.89
2022-07-29T09:48:39.418Z,25.08
2022-07-29T09:51:07.450Z,25.00
2022-07-29T09:53:37.280Z,26.68
2022-07-29T09:56:06.689Z,25.55
2022-07-29T09:58:34.723Z,24.11
2022-07-29T10:01:01.570Z,25.79
2022-07-29T10:03:28.452Z,25.33
2022-07-29T10:06:11.119Z,26.85
2022-07-29T10:08:38.312Z,26.90
2022-07-29T10:11:13.642Z,27.39
2022-07-29T10:13:41.847Z,27.83
2022-07-29T10:16:09.340Z,28.45
2022-07-29T10:18:36.238Z,26.96
2022-07-29T10:21:03.057Z,25.62
2022-07-29T10:23:31.052Z,26.03
2022-07-29T10:26:15.466Z,25.46
2022-07-29T10:28:42.222Z,25.63
2022-07-29T10:31:20.351Z,24.76
2022-07-29T10:33:59.893Z,25.61
2022-07-29T10:37:06.703Z,25.53
2022-07-29T10:39:41.888Z,25.88
2022-07-29T10:42:29.812Z,25.72
2022-07-29T10:45:02.614Z,26.07
2022-07-29T10:47:31.681Z,26.77
2022-07-29T10:50:01.858Z,27.74
2022-07-29T10:52:58.426Z,26.33
2022-07-29T10:55:35.688Z,25.80
2022-07-29T10:58:21.721Z,27.24
2022-07-29T11:00:50.624Z,27.01
2022-07-29T11:03:50.277Z,26.17
2022-07-29T11:06:18.214Z,26.46
2022-07-29T11:09:20.370Z,28.95
2022-07-29T11:11:53.139Z,28.07
2022-07-29T11:14:56.680Z,28.87
2022-07-29T11:17:24.615Z,28.12
2022-07-29T11:19:52.259Z,27.85
2022-07-29T11:22:35.517Z,29.44
2022-07-29T11:25:18.833Z,27.46
2022-07-29T11:27:48.424Z,26.84
2022-07-29T11:30:15.099Z,28.20
2022-07-29T11:32:48.595Z,27.60
2022-07-29T11:38:28.684Z,27.82
2022-07-29T11:41:25.482Z,26.39
2022-07-29T11:43:55.907Z,26.54
2022-07-29T11:46:46.435Z,26.78
2022-07-29T11:49:15.477Z,26.58
2022-07-29T11:51:48.089Z,26.16
2022-07-29T11:54:27.456Z,26.09
2022-07-29T11:56:54.873Z,25.36
2022-07-29T11:59:22.364Z,25.57
2022-07-29T12:04:58.142Z,26.12
2022-07-29T12:07:01.567Z,27.35
2022-07-29T12:07:03.341Z,25.18
2022-07-29T12:07:33.842Z,25.87
2022-07-29T12:10:02.532Z,26.49
2022-07-29T12:12:29.413Z,26.44
2022-07-29T12:14:56.410Z,26.42
2022-07-29T12:17:41.709Z,25.71
2022-07-29T12:20:08.529Z,25.90
2022-07-29T12:22:39.072Z,25.77
2022-07-29T12:25:32.668Z,25.56
2022-07-29T12:28:02.158Z,25.78
2022-07-29T12:30:42.302Z,26.02
2022-07-29T12:33:12.454Z,26.32
2022-07-29T12:35:39.593Z,26.01
2022-07-29T12:38:06.512Z,25.80
2022-07-29T12:40:33.149Z,25.94
2022-07-29T12:43:17.488Z,25.65
2022-07-29T12:45:47.098Z,25.59
2022-07-29T12:48:15.215Z,25.68
2022-07-29T12:50:56.770Z,25.91
2022-07-29T12:53:23.512Z,25.71
2022-07-29T12:55:55.374Z,25.80
2022-07-29T12:58:37.620Z,26.04
2022-07-29T13:01:17.610Z,26.35
2022-07-29T13:04:01.027Z,26.27
2022-07-29T13:06:45.994Z,25.84
2022-07-29T13:09:19.077Z,25.76
2022-07-29T13:11:48.746Z,25.81
2022-07-29T13:14:32.590Z,25.98
2022-07-29T13:17:10.036Z,26.15
2022-07-29T13:20:13.320Z,26.17
2022-07-29T13:22:40.998Z,26.22
2022-07-29T13:25:08.023Z,26.32
2022-07-29T13:27:37.434Z,26.05
2022-07-29T13:30:07.535Z,26.09
2022-07-29T13:32:35.507Z,26.03
2022-07-29T13:35:05.734Z,26.03
2022-07-29T13:37:35.120Z,26.23
2022-07-29T13:40:04.195Z,26.06
2022-07-29T13:42:32.350Z,25.77
2022-07-29T13:44:59.918Z,25.92
2022-07-29T13:47:32.550Z,25.98
2022-07-29T13:50:00.589Z,25.82
2022-07-29T13:52:27.189Z,25.93
2022-07-29T13:54:53.759Z,25.85
2022-07-29T13:57:20.334Z,25.63
2022-07-29T13:59:50.602Z,25.74
2022-07-29T14:02:20.606Z,25.83
2022-07-29T14:04:47.657Z,25.85
2022-07-29T14:07:17.335Z,25.87
2022-07-29T14:09:44.093Z,25.41
2022-07-29T14:12:10.824Z,25.33
2022-07-29T14:14:37.691Z,25.08
2022-07-29T14:17:07.540Z,24.93
2022-07-29T14:19:39.142Z,24.92
2022-07-29T14:22:06.675Z,25.01
2022-07-29T14:24:36.412Z,25.08
2022-07-29T14:27:07.598Z,25.24
2022-07-29T14:29:37.605Z,25.48
2022-07-29T14:32:08.205Z,25.63
2022-07-29T14:34:36.613Z,25.29
2022-07-29T14:37:06.110Z,25.32
2022-07-29T14:39:32.939Z,25.35
2022-07-29T14:42:00.512Z,25.19
2022-07-29T14:44:32.172Z,24.97
2022-07-29T14:47:07.642Z,24.96
2022-07-29T14:49:34.843Z,24.95
2022-07-29T14:52:01.664Z,24.94
2022-07-29T14:54:28.435Z,24.90
2022-07-29T14:56:57.940Z,25.09
2022-07-29T14:59:24.806Z,25.04
2022-07-29T15:01:52.538Z,25.08
2022-07-29T15:04:19.193Z,25.11
2022-07-29T15:06:45.811Z,25.35
2022-07-29T15:09:12.875Z,25.35
2022-07-29T15:11:39.499Z,25.50
2022-07-29T15:14:06.810Z,25.40
2022-07-29T15:16:33.956Z,25.08
2022-07-29T15:19:01.337Z,25.28
2022-07-29T15:21:28.210Z,25.15
2022-07-29T15:23:54.772Z,25.18
2022-07-29T15:26:21.423Z,25.08
2022-07-29T15:28:49.082Z,24.98
2022-07-29T15:31:16.114Z,25.16
2022-07-29T15:33:42.808Z,25.05
2022-07-29T15:36:09.595Z,24.96
2022-07-29T15:38:36.329Z,24.83
2022-07-29T15:41:08.610Z,24.77
2022-07-29T15:43:36.194Z,24.85
2022-07-29T15:46:21.364Z,24.81
2022-07-29T15:48:48.204Z,24.88
2022-07-29T15:51:15.179Z,24.61
2022-07-29T15:53:41.759Z,24.55
2022-07-29T15:56:08.405Z,24.44
2022-07-29T15:58:34.980Z,24.28
2022-07-29T16:01:01.610Z,24.43
2022-07-29T16:03:28.343Z,24.50
2022-07-29T16:05:54.903Z,24.44
2022-07-29T16:08:21.498Z,24.39
2022-07-29T16:10:48.035Z,24.28
2022-07-29T16:13:17.055Z,24.37
2022-07-29T16:16:02.366Z,24.32
2022-07-29T16:18:30.501Z,24.54
2022-07-29T16:20:57.736Z,24.36
2022-07-29T16:23:24.765Z,24.17
2022-07-29T16:25:59.691Z,24.13
2022-07-29T16:28:27.832Z,24.13
2022-07-29T16:30:54.421Z,24.14
2022-07-29T16:33:21.021Z,24.14
2022-07-29T16:35:47.573Z,24.18
2022-07-29T16:38:14.106Z,24.26
2022-07-29T16:40:41.492Z,24.47
2022-07-29T16:43:08.754Z,24.70
2022-07-29T16:45:45.989Z,24.77
2022-07-29T16:48:14.334Z,24.71
2022-07-29T16:50:41.519Z,24.69
2022-07-29T16:53:10.486Z,24.57
2022-07-29T16:55:37.206Z,24.72
2022-07-29T16:58:03.894Z,24.71
2022-07-29T17:00:30.515Z,24.58
2022-07-29T17:02:57.208Z,24.69
2022-07-29T17:05:24.237Z,24.73
2022-07-29T17:07:50.824Z,24.92
2022-07-29T17:10:17.548Z,24.75
2022-07-29T17:12:44.650Z,24.77
2022-07-29T17:15:12.082Z,24.62
2022-07-29T17:17:55.450Z,24.64
2022-07-29T17:20:23.466Z,24.57
2022-07-29T17:22:50.154Z,24.47
2022-07-29T17:25:20.669Z,24.58
2022-07-29T17:27:49.707Z,24.47
2022-07-29T17:30:16.565Z,24.29
2022-07-29T17:32:43.144Z,24.35
2022-07-29T17:35:29.106Z,24.32
2022-07-29T17:37:55.702Z,24.30
2022-07-29T17:40:22.566Z,24.28
2022-07-29T17:42:49.170Z,24.28
2022-07-29T17:45:16.036Z,24.31
2022-07-29T17:47:42.540Z,24.26
2022-07-29T17:50:09.254Z,24.24
2022-07-29T17:52:35.796Z,24.13
2022-07-29T17:55:02.631Z,24.18
2022-07-29T17:57:29.233Z,24.17
2022-07-29T17:59:55.826Z,23.98
2022-07-29T18:02:22.500Z,23.93
2022-07-29T18:04:51.556Z,23.95
2022-07-29T18:07:18.545Z,23.85
2022-07-29T18:09:45.215Z,23.79
2022-07-29T18:12:11.785Z,23.69
2022-07-29T18:14:38.613Z,23.63
2022-07-29T18:17:05.188Z,23.63
2022-07-29T18:19:31.823Z,23.59
2022-07-29T18:22:04.867Z,23.58
2022-07-29T18:24:32.173Z,23.55
2022-07-29T18:26:58.919Z,23.47
2022-07-29T18:29:28.824Z,23.41
2022-07-29T18:31:55.694Z,23.40
2022-07-29T18:34:22.236Z,23.37
2022-07-29T18:36:48.797Z,23.30
2022-07-29T18:39:20.975Z,23.19
2022-07-29T18:41:50.499Z,23.21
2022-07-29T18:44:18.890Z,23.15
2022-07-29T18:46:47.287Z,23.15
2022-07-29T18:49:14.676Z,23.03
2022-07-29T18:51:41.344Z,22.85
2022-07-29T18:54:09.354Z,22.87
2022-07-29T18:56:36.141Z,22.83
2022-07-29T18:59:03.253Z,22.84
2022-07-29T19:01:31.668Z,22.73
2022-07-29T19:03:58.994Z,22.66
2022-07-29T19:06:26.152Z,22.64
2022-07-29T19:08:53.408Z,22.46
2022-07-29T19:11:20.137Z,22.45
2022-07-29T19:13:46.765Z,22.38
2022-07-29T19:16:14.550Z,22.24
2022-07-29T19:18:41.537Z,22.26
2022-07-29T19:21:08.111Z,22.37
2022-07-29T19:24:01.574Z,22.45
2022-07-29T19:26:21.499Z,22.35
2022-07-29T19:28:48.860Z,22.25
2022-07-29T19:31:18.993Z,22.17
2022-07-29T19:33:45.617Z,22.00
2022-07-29T19:36:12.139Z,21.87
2022-07-29T19:38:39.557Z,21.73
2022-07-29T19:41:06.626Z,21.68
2022-07-29T19:43:50.752Z,21.66
2022-07-29T19:46:18.829Z,21.61
2022-07-29T19:48:45.708Z,21.51
2022-07-29T19:51:12.258Z,21.47
2022-07-29T19:53:38.826Z,21.47
2022-07-29T19:56:05.690Z,21.38
2022-07-29T19:58:35.728Z,21.30
2022-07-29T20:01:03.184Z,21.29
2022-07-29T20:03:39.695Z,21.21
2022-07-29T20:06:06.709Z,21.15
2022-07-29T20:08:33.330Z,21.13
2022-07-29T20:10:59.891Z,21.10
2022-07-29T20:13:26.556Z,21.07
2022-07-29T20:15:53.317Z,21.05
2022-07-29T20:18:20.022Z,21.00
2022-07-29T20:20:48.122Z,20.93
2022-07-29T20:23:14.830Z,20.90
2022-07-29T20:25:41.706Z,20.85
2022-07-29T20:28:08.394Z,20.85
2022-07-29T20:30:34.968Z,20.87
2022-07-29T20:33:05.344Z,20.89
2022-07-29T20:35:32.033Z,20.90
2022-07-29T20:37:59.751Z,20.86
2022-07-29T20:40:27.264Z,20.82
2022-07-29T20:42:55.103Z,20.84
2022-07-29T20:45:23.461Z,20.81
2022-07-29T20:47:51.693Z,20.77
2022-07-29T20:50:19.186Z,20.77
2022-07-29T20:52:45.901Z,20.77
2022-07-29T20:55:12.647Z,20.78
2022-07-29T20:57:39.958Z,20.76
2022-07-29T21:00:07.741Z,20.76
2022-07-29T21:02:34.491Z,20.76
2022-07-29T21:05:01.155Z,20.78
2022-07-29T21:07:27.757Z,20.79
2022-07-29T21:09:54.297Z,20.78
2022-07-29T21:12:20.881Z,20.75
2022-07-29T21:14:51.290Z,20.76
2022-07-29T21:17:21.280Z,20.75
2022-07-29T21:19:52.423Z,20.74
2022-07-29T21:22:21.686Z,20.74
2022-07-29T21:24:48.857Z,20.73
2022-07-29T21:27:33.938Z,20.73
2022-07-29T21:30:00.525Z,20.73
2022-07-29T21:32:29.679Z,20.69
2022-07-29T21:34:57.020Z,20.68
2022-07-29T21:37:23.620Z,20.65
2022-07-29T21:39:50.170Z,20.63
2022-07-29T21:42:16.855Z,20.61
2022-07-29T21:44:43.519Z,20.58
2022-07-29T21:47:11.638Z,20.52
2022-07-29T21:49:38.539Z,20.45
2022-07-29T21:52:05.754Z,20.42
2022-07-29T21:54:34.598Z,20.40
2022-07-29T21:57:01.192Z,20.32
2022-07-29T21:59:27.762Z,20.26
2022-07-29T22:01:54.788Z,20.22
2022-07-29T22:04:21.443Z,20.24
2022-07-29T22:06:48.145Z,20.10
2022-07-29T22:09:14.749Z,20.11
2022-07-29T22:11:42.009Z,20.05
2022-07-29T22:14:08.540Z,20.13
2022-07-29T22:16:35.297Z,20.04
2022-07-29T22:19:03.947Z,20.10
2022-07-29T22:21:30.861Z,20.11
2022-07-29T22:23:57.578Z,20.05
2022-07-29T22:26:24.212Z,19.96
2022-07-29T22:28:50.801Z,19.89
2022-07-29T22:31:17.417Z,19.85
2022-07-29T22:33:44.113Z,19.84
2022-07-29T22:36:10.759Z,19.79
2022-07-29T22:38:37.482Z,19.75
2022-07-29T22:41:07.224Z,19.53
2022-07-29T22:43:35.115Z,19.45
2022-07-29T22:46:01.779Z,19.43
2022-07-29T22:48:28.361Z,19.34
2022-07-29T22:50:54.917Z,19.33
2022-07-29T22:53:22.134Z,19.27
2022-07-29T22:55:48.690Z,19.23
2022-07-29T22:58:15.201Z,19.23
2022-07-29T23:00:41.714Z,19.25
2022-07-29T23:03:08.242Z,19.16
2022-07-29T23:05:34.853Z,19.18
2022-07-29T23:08:01.536Z,19.10
2022-07-29T23:10:28.366Z,18.99
2022-07-29T23:12:54.878Z,18.94
2022-07-29T23:15:21.499Z,18.92
2022-07-29T23:17:48.028Z,18.87
2022-07-29T23:20:15.012Z,18.82
2022-07-29T23:22:42.246Z,18.80
2022-07-29T23:25:08.850Z,18.71
2022-07-29T23:27:38.001Z,18.63
2022-07-29T23:30:06.718Z,18.50
2022-07-29T23:32:33.308Z,18.32
2022-07-29T23:34:59.880Z,18.32
2022-07-29T23:37:27.051Z,18.33
2022-07-29T23:39:53.882Z,18.33
2022-07-29T23:42:20.399Z,18.36
2022-07-29T23:44:46.932Z,18.37
2022-07-29T23:47:13.768Z,18.34
2022-07-29T23:49:40.367Z,18.30
2022-07-29T23:52:07.101Z,18.28
2022-07-29T23:54:33.738Z,18.26
2022-07-29T23:57:01.114Z,18.26
2022-07-29T23:59:27.867Z,18.18
